Terminal Aerodrome Forecast
Issued by NWS

Home | Current Version | Previous Version | Text Only | Print | Product List | Glossary On
Versions: 1 2 3 4 5 6 7 8 9 10 11 12
220
FTUS45 KRIW 230529
TAFBPI
TAF
KBPI 230529Z 2306/2406 VRB05KT P6SM BKN050
     FM231600 VRB05KT P6SM SCT070
     FM240500 VRB05KT P6SM BKN100=

USA.gov is the U.S. government's official web portal to all federal, state and local government web resources and services.